Aviation Digital Data Service (ADDS)

Output produced by METARs form (1230 UTC 22 March 2019)
found at http://www.aviationweather.gov/metar/data/
 
METAR text: VNKT 221220Z 30008KT 9999 FEW025 21/02 Q1015 NOSIG
Conditions at: VNKT (KATHMANDU INTL A, NP) observed 1220 UTC 22 March 2019
Temperature: 21.0°C (70°F)
Dewpoint: 2.0°C (36°F) [RH = 28%]
Pressure (altimeter): 29.97 inches Hg (1015.0 mb)
Winds: from the WNW (300 degrees) at 9 MPH (8 knots; 4.1 m/s)
Visibility: 6 or more miles (10+ km)
Ceiling: at least 12,000 feet AGL
Clouds: few clouds at 2500 feet AGL
Weather: no significant weather observed at this time

METAR text: VNKT 221150Z 30012KT 9999 FEW025 22/01 Q1015 NOSIG
Conditions at: VNKT (KATHMANDU INTL A, NP) observed 1150 UTC 22 March 2019
Temperature: 22.0°C (72°F)
Dewpoint: 1.0°C (34°F) [RH = 25%]
Pressure (altimeter): 29.97 inches Hg (1015.0 mb)
Winds: from the WNW (300 degrees) at 14 MPH (12 knots; 6.2 m/s)
Visibility: 6 or more miles (10+ km)
Ceiling: at least 12,000 feet AGL
Clouds: few clouds at 2500 feet AGL
Weather: no significant weather observed at this time

METAR text: VNKT 221120Z 29011KT 9999 FEW025 23/02 Q1015 NOSIG
Conditions at: VNKT (KATHMANDU INTL A, NP) observed 1120 UTC 22 March 2019
Temperature: 23.0°C (73°F)
Dewpoint: 2.0°C (36°F) [RH = 25%]
Pressure (altimeter): 29.97 inches Hg (1015.0 mb)
Winds: from the WNW (290 degrees) at 13 MPH (11 knots; 5.7 m/s)
Visibility: 6 or more miles (10+ km)
Ceiling: at least 12,000 feet AGL
Clouds: few clouds at 2500 feet AGL
Weather: no significant weather observed at this time

METAR text: VNKT 221050Z 29010KT 9999 FEW025 24/02 Q1014 NOSIG
Conditions at: VNKT (KATHMANDU INTL A, NP) observed 1050 UTC 22 March 2019
Temperature: 24.0°C (75°F)
Dewpoint: 2.0°C (36°F) [RH = 24%]
Pressure (altimeter): 29.94 inches Hg (1014.0 mb)
Winds: from the WNW (290 degrees) at 12 MPH (10 knots; 5.1 m/s)
Visibility: 6 or more miles (10+ km)
Ceiling: at least 12,000 feet AGL
Clouds: few clouds at 2500 feet AGL
Weather: no significant weather observed at this time

METAR text: VNKT 221020Z 30008KT 9999 FEW025 24/03 Q1014 NOSIG
Conditions at: VNKT (KATHMANDU INTL A, NP) observed 1020 UTC 22 March 2019
Temperature: 24.0°C (75°F)
Dewpoint: 3.0°C (37°F) [RH = 25%]
Pressure (altimeter): 29.94 inches Hg (1014.0 mb)
Winds: from the WNW (300 degrees) at 9 MPH (8 knots; 4.1 m/s)
Visibility: 6 or more miles (10+ km)
Ceiling: at least 12,000 feet AGL
Clouds: few clouds at 2500 feet AGL
Weather: no significant weather observed at this time

METAR text: VNKT 220950Z 30007KT 9999 FEW020 25/04 Q1014 NOSIG
Conditions at: VNKT (KATHMANDU INTL A, NP) observed 0950 UTC 22 March 2019
Temperature: 25.0°C (77°F)
Dewpoint: 4.0°C (39°F) [RH = 26%]
Pressure (altimeter): 29.94 inches Hg (1014.0 mb)
Winds: from the WNW (300 degrees) at 8 MPH (7 knots; 3.6 m/s)
Visibility: 6 or more miles (10+ km)
Ceiling: at least 12,000 feet AGL
Clouds: few clouds at 2000 feet AGL
Weather: no significant weather observed at this time

METAR text: VNKT 220920Z 27007KT 9999 FEW020 25/03 Q1015 NOSIG
Conditions at: VNKT (KATHMANDU INTL A, NP) observed 0920 UTC 22 March 2019
Temperature: 25.0°C (77°F)
Dewpoint: 3.0°C (37°F) [RH = 24%]
Pressure (altimeter): 29.97 inches Hg (1015.0 mb)
Winds: from the W (270 degrees) at 8 MPH (7 knots; 3.6 m/s)
Visibility: 6 or more miles (10+ km)
Ceiling: at least 12,000 feet AGL
Clouds: few clouds at 2000 feet AGL
Weather: no significant weather observed at this time

METAR text: VNKT 220850Z 29008KT 9999 FEW020 24/03 Q1016 NOSIG
Conditions at: VNKT (KATHMANDU INTL A, NP) observed 0850 UTC 22 March 2019
Temperature: 24.0°C (75°F)
Dewpoint: 3.0°C (37°F) [RH = 25%]
Pressure (altimeter): 30.00 inches Hg (1016.0 mb)
Winds: from the WNW (290 degrees) at 9 MPH (8 knots; 4.1 m/s)
Visibility: 6 or more miles (10+ km)
Ceiling: at least 12,000 feet AGL
Clouds: few clouds at 2000 feet AGL
Weather: no significant weather observed at this time

METAR text: VNKT 220820Z 31006KT 9999 FEW020 24/03 Q1016 NOSIG
Conditions at: VNKT (KATHMANDU INTL A, NP) observed 0820 UTC 22 March 2019
Temperature: 24.0°C (75°F)
Dewpoint: 3.0°C (37°F) [RH = 25%]
Pressure (altimeter): 30.00 inches Hg (1016.0 mb)
Winds: from the NW (310 degrees) at 7 MPH (6 knots; 3.1 m/s)
Visibility: 6 or more miles (10+ km)
Ceiling: at least 12,000 feet AGL
Clouds: few clouds at 2000 feet AGL
Weather: no significant weather observed at this time

METAR text: VNKT 220750Z 27008KT 9999 FEW020 25/03 Q1016 NOSIG
Conditions at: VNKT (KATHMANDU INTL A, NP) observed 0750 UTC 22 March 2019
Temperature: 25.0°C (77°F)
Dewpoint: 3.0°C (37°F) [RH = 24%]
Pressure (altimeter): 30.00 inches Hg (1016.0 mb)
Winds: from the W (270 degrees) at 9 MPH (8 knots; 4.1 m/s)
Visibility: 6 or more miles (10+ km)
Ceiling: at least 12,000 feet AGL
Clouds: few clouds at 2000 feet AGL
Weather: no significant weather observed at this time

METAR text: VNKT 220720Z 26005KT 9999 FEW020 24/04 Q1017 NOSIG
Conditions at: VNKT (KATHMANDU INTL A, NP) observed 0720 UTC 22 March 2019
Temperature: 24.0°C (75°F)
Dewpoint: 4.0°C (39°F) [RH = 27%]
Pressure (altimeter): 30.03 inches Hg (1017.0 mb)
Winds: from the W (260 degrees) at 6 MPH (5 knots; 2.6 m/s)
Visibility: 6 or more miles (10+ km)
Ceiling: at least 12,000 feet AGL
Clouds: few clouds at 2000 feet AGL
Weather: no significant weather observed at this time

METAR text: VNKT 220650Z 27003KT 9999 FEW020 25/03 Q1018 NOSIG
Conditions at: VNKT (KATHMANDU INTL A, NP) observed 0650 UTC 22 March 2019
Temperature: 25.0°C (77°F)
Dewpoint: 3.0°C (37°F) [RH = 24%]
Pressure (altimeter): 30.06 inches Hg (1018.0 mb)
Winds: from the W (270 degrees) at 3 MPH (3 knots; 1.5 m/s)
Visibility: 6 or more miles (10+ km)
Ceiling: at least 12,000 feet AGL
Clouds: few clouds at 2000 feet AGL
Weather: no significant weather observed at this time

METAR text: VNKT 220620Z 27006KT 210V330 9999 FEW020 24/02 Q1018 NOSIG
Conditions at: VNKT (KATHMANDU INTL A, NP) observed 0620 UTC 22 March 2019
Temperature: 24.0°C (75°F)
Dewpoint: 2.0°C (36°F) [RH = 24%]
Pressure (altimeter): 30.06 inches Hg (1018.0 mb)
Winds: from the W (270 degrees) at 7 MPH (6 knots; 3.1 m/s)
Visibility: 6 or more miles (10+ km)
Ceiling: at least 12,000 feet AGL
Clouds: few clouds at 2000 feet AGL
Weather: no significant weather observed at this time

METAR text: VNKT 220550Z 29004KT 8000 FEW020 24/05 Q1019 NOSIG
Conditions at: VNKT (KATHMANDU INTL A, NP) observed 0550 UTC 22 March 2019
Temperature: 24.0°C (75°F)
Dewpoint: 5.0°C (41°F) [RH = 29%]
Pressure (altimeter): 30.09 inches Hg (1019.0 mb)
Winds: from the WNW (290 degrees) at 5 MPH (4 knots; 2.1 m/s)
Visibility: 5 miles ( 8 km)
Ceiling: at least 12,000 feet AGL
Clouds: few clouds at 2000 feet AGL
Weather: no significant weather observed at this time

METAR text: VNKT 220520Z VRB02KT 7000 FEW020 23/06 Q1019 NOSIG
Conditions at: VNKT (KATHMANDU INTL A, NP) observed 0520 UTC 22 March 2019
Temperature: 23.0°C (73°F)
Dewpoint: 6.0°C (43°F) [RH = 33%]
Pressure (altimeter): 30.09 inches Hg (1019.0 mb)
Winds: variable direction winds at 2 MPH (2 knots; 1.0 m/s)
Visibility: 4 miles ( 7 km)
Ceiling: at least 12,000 feet AGL
Clouds: few clouds at 2000 feet AGL
Weather: no significant weather observed at this time

METAR text: VNKT 220450Z VRB02KT 6000 FEW020 22/07 Q1019 NOSIG
Conditions at: VNKT (KATHMANDU INTL A, NP) observed 0450 UTC 22 March 2019
Temperature: 22.0°C (72°F)
Dewpoint: 7.0°C (45°F) [RH = 38%]
Pressure (altimeter): 30.09 inches Hg (1019.0 mb)
Winds: variable direction winds at 2 MPH (2 knots; 1.0 m/s)
Visibility: 4 miles ( 6 km)
Ceiling: at least 12,000 feet AGL
Clouds: few clouds at 2000 feet AGL
Weather: no significant weather observed at this time

METAR text: VNKT 220420Z VRB02KT 6000 FEW020 20/08 Q1020 NOSIG
Conditions at: VNKT (KATHMANDU INTL A, NP) observed 0420 UTC 22 March 2019
Temperature: 20.0°C (68°F)
Dewpoint: 8.0°C (46°F) [RH = 46%]
Pressure (altimeter): 30.12 inches Hg (1020.0 mb)
Winds: variable direction winds at 2 MPH (2 knots; 1.0 m/s)
Visibility: 4 miles ( 6 km)
Ceiling: at least 12,000 feet AGL
Clouds: few clouds at 2000 feet AGL
Weather: no significant weather observed at this time

METAR text: VNKT 220350Z VRB02KT 6000 FEW020 19/08 Q1020 NOSIG
Conditions at: VNKT (KATHMANDU INTL A, NP) observed 0350 UTC 22 March 2019
Temperature: 19.0°C (66°F)
Dewpoint: 8.0°C (46°F) [RH = 49%]
Pressure (altimeter): 30.12 inches Hg (1020.0 mb)
Winds: variable direction winds at 2 MPH (2 knots; 1.0 m/s)
Visibility: 4 miles ( 6 km)
Ceiling: at least 12,000 feet AGL
Clouds: few clouds at 2000 feet AGL
Weather: no significant weather observed at this time

METAR text: VNKT 220320Z 11003KT 4000 BR FEW015 17/08 Q1020 NOSIG
Conditions at: VNKT (KATHMANDU INTL A, NP) observed 0320 UTC 22 March 2019
Temperature: 17.0°C (63°F)
Dewpoint: 8.0°C (46°F) [RH = 55%]
Pressure (altimeter): 30.12 inches Hg (1020.0 mb)
Winds: from the ESE (110 degrees) at 3 MPH (3 knots; 1.5 m/s)
Visibility: 2.49 miles (4.01 km)
Ceiling: at least 12,000 feet AGL
Clouds: few clouds at 1500 feet AGL
Weather: BR  (mist)

METAR text: VNKT 220250Z 00000KT 4000 BR FEW015 16/08 Q1020 NOSIG
Conditions at: VNKT (KATHMANDU INTL A, NP) observed 0250 UTC 22 March 2019
Temperature: 16.0°C (61°F)
Dewpoint: 8.0°C (46°F) [RH = 59%]
Pressure (altimeter): 30.12 inches Hg (1020.0 mb)
Winds: calm
Visibility: 2.49 miles (4.01 km)
Ceiling: at least 12,000 feet AGL
Clouds: few clouds at 1500 feet AGL
Weather: BR  (mist)

METAR text: VNKT 220220Z 00000KT 4000 BR FEW015 15/09 Q1019 NOSIG
Conditions at: VNKT (KATHMANDU INTL A, NP) observed 0220 UTC 22 March 2019
Temperature: 15.0°C (59°F)
Dewpoint: 9.0°C (48°F) [RH = 67%]
Pressure (altimeter): 30.09 inches Hg (1019.0 mb)
Winds: calm
Visibility: 2.49 miles (4.01 km)
Ceiling: at least 12,000 feet AGL
Clouds: few clouds at 1500 feet AGL
Weather: BR  (mist)

METAR text: VNKT 220150Z VRB02KT 4000 BR FEW015 13/09 Q1019 NOSIG
Conditions at: VNKT (KATHMANDU INTL A, NP) observed 0150 UTC 22 March 2019
Temperature: 13.0°C (55°F)
Dewpoint: 9.0°C (48°F) [RH = 77%]
Pressure (altimeter): 30.09 inches Hg (1019.0 mb)
Winds: variable direction winds at 2 MPH (2 knots; 1.0 m/s)
Visibility: 2.49 miles (4.01 km)
Ceiling: at least 12,000 feet AGL
Clouds: few clouds at 1500 feet AGL
Weather: BR  (mist)

METAR text: VNKT 220120Z VRB02KT 5000 BR FEW015 11/08 Q1019 NOSIG
Conditions at: VNKT (KATHMANDU INTL A, NP) observed 0120 UTC 22 March 2019
Temperature: 11.0°C (52°F)
Dewpoint: 8.0°C (46°F) [RH = 82%]
Pressure (altimeter): 30.09 inches Hg (1019.0 mb)
Winds: variable direction winds at 2 MPH (2 knots; 1.0 m/s)
Visibility: 3 miles ( 5 km)
Ceiling: at least 12,000 feet AGL
Clouds: few clouds at 1500 feet AGL
Weather: BR  (mist)

METAR text: VNKT 220050Z VRB02KT 5000 BR FEW015 10/08 Q1018 NOSIG
Conditions at: VNKT (KATHMANDU INTL A, NP) observed 0050 UTC 22 March 2019
Temperature: 10.0°C (50°F)
Dewpoint: 8.0°C (46°F) [RH = 87%]
Pressure (altimeter): 30.06 inches Hg (1018.0 mb)
Winds: variable direction winds at 2 MPH (2 knots; 1.0 m/s)
Visibility: 3 miles ( 5 km)
Ceiling: at least 12,000 feet AGL
Clouds: few clouds at 1500 feet AGL
Weather: BR  (mist)

METAR text: VNKT 220020Z 12003KT 5000 BR FEW015 10/07 Q1018 NOSIG
Conditions at: VNKT (KATHMANDU INTL A, NP) observed 0020 UTC 22 March 2019
Temperature: 10.0°C (50°F)
Dewpoint: 7.0°C (45°F) [RH = 82%]
Pressure (altimeter): 30.06 inches Hg (1018.0 mb)
Winds: from the ESE (120 degrees) at 3 MPH (3 knots; 1.5 m/s)
Visibility: 3 miles ( 5 km)
Ceiling: at least 12,000 feet AGL
Clouds: few clouds at 1500 feet AGL
Weather: BR  (mist)

METAR text: VNKT 212350Z 08004KT 7000 FEW020 10/07 Q1018 NOSIG
Conditions at: VNKT (KATHMANDU INTL A, NP) observed 2350 UTC 21 March 2019
Temperature: 10.0°C (50°F)
Dewpoint: 7.0°C (45°F) [RH = 82%]
Pressure (altimeter): 30.06 inches Hg (1018.0 mb)
Winds: from the E (80 degrees) at 5 MPH (4 knots; 2.1 m/s)
Visibility: 4 miles ( 7 km)
Ceiling: at least 12,000 feet AGL
Clouds: few clouds at 2000 feet AGL
Weather: no significant weather observed at this time

METAR text: VNKT 212250Z 09004KT 7000 FEW020 10/08 Q1017 NOSIG
Conditions at: VNKT (KATHMANDU INTL A, NP) observed 2250 UTC 21 March 2019
Temperature: 10.0°C (50°F)
Dewpoint: 8.0°C (46°F) [RH = 87%]
Pressure (altimeter): 30.03 inches Hg (1017.0 mb)
Winds: from the E (90 degrees) at 5 MPH (4 knots; 2.1 m/s)
Visibility: 4 miles ( 7 km)
Ceiling: at least 12,000 feet AGL
Clouds: few clouds at 2000 feet AGL
Weather: no significant weather observed at this time

METAR text: VNKT 212150Z 14004KT 7000 FEW020 11/08 Q1017 NOSIG
Conditions at: VNKT (KATHMANDU INTL A, NP) observed 2150 UTC 21 March 2019
Temperature: 11.0°C (52°F)
Dewpoint: 8.0°C (46°F) [RH = 82%]
Pressure (altimeter): 30.03 inches Hg (1017.0 mb)
Winds: from the SE (140 degrees) at 5 MPH (4 knots; 2.1 m/s)
Visibility: 4 miles ( 7 km)
Ceiling: at least 12,000 feet AGL
Clouds: few clouds at 2000 feet AGL
Weather: no significant weather observed at this time

METAR text: VNKT 212120Z VRB02KT 7000 FEW020 11/07 Q1017 NOSIG
Conditions at: VNKT (KATHMANDU INTL A, NP) observed 2120 UTC 21 March 2019
Temperature: 11.0°C (52°F)
Dewpoint: 7.0°C (45°F) [RH = 76%]
Pressure (altimeter): 30.03 inches Hg (1017.0 mb)
Winds: variable direction winds at 2 MPH (2 knots; 1.0 m/s)
Visibility: 4 miles ( 7 km)
Ceiling: at least 12,000 feet AGL
Clouds: few clouds at 2000 feet AGL
Weather: no significant weather observed at this time

METAR text: VNKT 212050Z VRB02KT 7000 FEW020 11/08 Q1017 NOSIG
Conditions at: VNKT (KATHMANDU INTL A, NP) observed 2050 UTC 21 March 2019
Temperature: 11.0°C (52°F)
Dewpoint: 8.0°C (46°F) [RH = 82%]
Pressure (altimeter): 30.03 inches Hg (1017.0 mb)
Winds: variable direction winds at 2 MPH (2 knots; 1.0 m/s)
Visibility: 4 miles ( 7 km)
Ceiling: at least 12,000 feet AGL
Clouds: few clouds at 2000 feet AGL
Weather: no significant weather observed at this time

METAR text: VNKT 212020Z VRB02KT 7000 FEW020 12/08 Q1018 NOSIG
Conditions at: VNKT (KATHMANDU INTL A, NP) observed 2020 UTC 21 March 2019
Temperature: 12.0°C (54°F)
Dewpoint: 8.0°C (46°F) [RH = 76%]
Pressure (altimeter): 30.06 inches Hg (1018.0 mb)
Winds: variable direction winds at 2 MPH (2 knots; 1.0 m/s)
Visibility: 4 miles ( 7 km)
Ceiling: at least 12,000 feet AGL
Clouds: few clouds at 2000 feet AGL
Weather: no significant weather observed at this time

METAR text: VNKT 211950Z 09003KT 7000 FEW020 SCT250 12/07 Q1018 NOSIG
Conditions at: VNKT (KATHMANDU INTL A, NP) observed 1950 UTC 21 March 2019
Temperature: 12.0°C (54°F)
Dewpoint: 7.0°C (45°F) [RH = 71%]
Pressure (altimeter): 30.06 inches Hg (1018.0 mb)
Winds: from the E (90 degrees) at 3 MPH (3 knots; 1.5 m/s)
Visibility: 4 miles ( 7 km)
Ceiling: at least 12,000 feet AGL
Clouds: few clouds at 2000 feet AGL
scattered clouds at 25000 feet AGL
Weather: no significant weather observed at this time

METAR text: VNKT 211920Z 10004KT 060V150 7000 FEW020 SCT250 12/07 Q1018 NOSIG
Conditions at: VNKT (KATHMANDU INTL A, NP) observed 1920 UTC 21 March 2019
Temperature: 12.0°C (54°F)
Dewpoint: 7.0°C (45°F) [RH = 71%]
Pressure (altimeter): 30.06 inches Hg (1018.0 mb)
Winds: from the E (100 degrees) at 5 MPH (4 knots; 2.1 m/s)
Visibility: 4 miles ( 7 km)
Ceiling: at least 12,000 feet AGL
Clouds: few clouds at 2000 feet AGL
scattered clouds at 25000 feet AGL
Weather: no significant weather observed at this time

METAR text: VNKT 211850Z 10003KT 7000 FEW020 BKN250 13/08 Q1019 NOSIG
Conditions at: VNKT (KATHMANDU INTL A, NP) observed 1850 UTC 21 March 2019
Temperature: 13.0°C (55°F)
Dewpoint: 8.0°C (46°F) [RH = 72%]
Pressure (altimeter): 30.09 inches Hg (1019.0 mb)
Winds: from the E (100 degrees) at 3 MPH (3 knots; 1.5 m/s)
Visibility: 4 miles ( 7 km)
Ceiling: 25000 feet AGL
Clouds: few clouds at 2000 feet AGL
broken clouds at 25000 feet AGL
Weather: no significant weather observed at this time

METAR text: VNKT 211820Z 00000KT 7000 FEW020 SCT250 13/08 Q1019 NOSIG
Conditions at: VNKT (KATHMANDU INTL A, NP) observed 1820 UTC 21 March 2019
Temperature: 13.0°C (55°F)
Dewpoint: 8.0°C (46°F) [RH = 72%]
Pressure (altimeter): 30.09 inches Hg (1019.0 mb)
Winds: calm
Visibility: 4 miles ( 7 km)
Ceiling: at least 12,000 feet AGL
Clouds: few clouds at 2000 feet AGL
scattered clouds at 25000 feet AGL
Weather: no significant weather observed at this time

METAR text: VNKT 211750Z 09004KT 7000 FEW020 SCT250 14/08 Q1019 NOSIG
Conditions at: VNKT (KATHMANDU INTL A, NP) observed 1750 UTC 21 March 2019
Temperature: 14.0°C (57°F)
Dewpoint: 8.0°C (46°F) [RH = 67%]
Pressure (altimeter): 30.09 inches Hg (1019.0 mb)
Winds: from the E (90 degrees) at 5 MPH (4 knots; 2.1 m/s)
Visibility: 4 miles ( 7 km)
Ceiling: at least 12,000 feet AGL
Clouds: few clouds at 2000 feet AGL
scattered clouds at 25000 feet AGL
Weather: no significant weather observed at this time

METAR text: VNKT 211720Z 10004KT 7000 FEW020 SCT250 14/08 Q1019 NOSIG
Conditions at: VNKT (KATHMANDU INTL A, NP) observed 1720 UTC 21 March 2019
Temperature: 14.0°C (57°F)
Dewpoint: 8.0°C (46°F) [RH = 67%]
Pressure (altimeter): 30.09 inches Hg (1019.0 mb)
Winds: from the E (100 degrees) at 5 MPH (4 knots; 2.1 m/s)
Visibility: 4 miles ( 7 km)
Ceiling: at least 12,000 feet AGL
Clouds: few clouds at 2000 feet AGL
scattered clouds at 25000 feet AGL
Weather: no significant weather observed at this time

METAR text: VNKT 211650Z VRB02KT 7000 FEW020 BKN250 14/08 Q1019 NOSIG
Conditions at: VNKT (KATHMANDU INTL A, NP) observed 1650 UTC 21 March 2019
Temperature: 14.0°C (57°F)
Dewpoint: 8.0°C (46°F) [RH = 67%]
Pressure (altimeter): 30.09 inches Hg (1019.0 mb)
Winds: variable direction winds at 2 MPH (2 knots; 1.0 m/s)
Visibility: 4 miles ( 7 km)
Ceiling: 25000 feet AGL
Clouds: few clouds at 2000 feet AGL
broken clouds at 25000 feet AGL
Weather: no significant weather observed at this time

METAR text: VNKT 211620Z 08004KT 8000 FEW020 16/07 Q1019 NOSIG
Conditions at: VNKT (KATHMANDU INTL A, NP) observed 1620 UTC 21 March 2019
Temperature: 16.0°C (61°F)
Dewpoint: 7.0°C (45°F) [RH = 55%]
Pressure (altimeter): 30.09 inches Hg (1019.0 mb)
Winds: from the E (80 degrees) at 5 MPH (4 knots; 2.1 m/s)
Visibility: 5 miles ( 8 km)
Ceiling: at least 12,000 feet AGL
Clouds: few clouds at 2000 feet AGL
Weather: no significant weather observed at this time

METAR text: VNKT 211550Z 10004KT 8000 FEW020 15/08 Q1019 NOSIG
Conditions at: VNKT (KATHMANDU INTL A, NP) observed 1550 UTC 21 March 2019
Temperature: 15.0°C (59°F)
Dewpoint: 8.0°C (46°F) [RH = 63%]
Pressure (altimeter): 30.09 inches Hg (1019.0 mb)
Winds: from the E (100 degrees) at 5 MPH (4 knots; 2.1 m/s)
Visibility: 5 miles ( 8 km)
Ceiling: at least 12,000 feet AGL
Clouds: few clouds at 2000 feet AGL
Weather: no significant weather observed at this time

METAR text: VNKT 211520Z 07004KT 8000 FEW020 16/08 Q1019 NOSIG
Conditions at: VNKT (KATHMANDU INTL A, NP) observed 1520 UTC 21 March 2019
Temperature: 16.0°C (61°F)
Dewpoint: 8.0°C (46°F) [RH = 59%]
Pressure (altimeter): 30.09 inches Hg (1019.0 mb)
Winds: from the ENE (70 degrees) at 5 MPH (4 knots; 2.1 m/s)
Visibility: 5 miles ( 8 km)
Ceiling: at least 12,000 feet AGL
Clouds: few clouds at 2000 feet AGL
Weather: no significant weather observed at this time

METAR text: VNKT 211450Z 08004KT 8000 FEW020 17/07 Q1018 NOSIG
Conditions at: VNKT (KATHMANDU INTL A, NP) observed 1450 UTC 21 March 2019
Temperature: 17.0°C (63°F)
Dewpoint: 7.0°C (45°F) [RH = 52%]
Pressure (altimeter): 30.06 inches Hg (1018.0 mb)
Winds: from the E (80 degrees) at 5 MPH (4 knots; 2.1 m/s)
Visibility: 5 miles ( 8 km)
Ceiling: at least 12,000 feet AGL
Clouds: few clouds at 2000 feet AGL
Weather: no significant weather observed at this time

METAR text: VNKT 211420Z 25003KT 8000 FEW020 19/05 Q1018 NOSIG
Conditions at: VNKT (KATHMANDU INTL A, NP) observed 1420 UTC 21 March 2019
Temperature: 19.0°C (66°F)
Dewpoint: 5.0°C (41°F) [RH = 40%]
Pressure (altimeter): 30.06 inches Hg (1018.0 mb)
Winds: from the WSW (250 degrees) at 3 MPH (3 knots; 1.5 m/s)
Visibility: 5 miles ( 8 km)
Ceiling: at least 12,000 feet AGL
Clouds: few clouds at 2000 feet AGL
Weather: no significant weather observed at this time

METAR text: VNKT 211350Z 28004KT 250V310 8000 FEW025 19/05 Q1018 NOSIG
Conditions at: VNKT (KATHMANDU INTL A, NP) observed 1350 UTC 21 March 2019
Temperature: 19.0°C (66°F)
Dewpoint: 5.0°C (41°F) [RH = 40%]
Pressure (altimeter): 30.06 inches Hg (1018.0 mb)
Winds: from the W (280 degrees) at 5 MPH (4 knots; 2.1 m/s)
Visibility: 5 miles ( 8 km)
Ceiling: at least 12,000 feet AGL
Clouds: few clouds at 2500 feet AGL
Weather: no significant weather observed at this time

METAR text: VNKT 211320Z 29005KT 8000 FEW025 20/04 Q1017 NOSIG
Conditions at: VNKT (KATHMANDU INTL A, NP) observed 1320 UTC 21 March 2019
Temperature: 20.0°C (68°F)
Dewpoint: 4.0°C (39°F) [RH = 35%]
Pressure (altimeter): 30.03 inches Hg (1017.0 mb)
Winds: from the WNW (290 degrees) at 6 MPH (5 knots; 2.6 m/s)
Visibility: 5 miles ( 8 km)
Ceiling: at least 12,000 feet AGL
Clouds: few clouds at 2500 feet AGL
Weather: no significant weather observed at this time

METAR text: VNKT 211250Z 29007KT 8000 FEW025 21/03 Q1017 NOSIG
Conditions at: VNKT (KATHMANDU INTL A, NP) observed 1250 UTC 21 March 2019
Temperature: 21.0°C (70°F)
Dewpoint: 3.0°C (37°F) [RH = 30%]
Pressure (altimeter): 30.03 inches Hg (1017.0 mb)
Winds: from the WNW (290 degrees) at 8 MPH (7 knots; 3.6 m/s)
Visibility: 5 miles ( 8 km)
Ceiling: at least 12,000 feet AGL
Clouds: few clouds at 2500 feet AGL
Weather: no significant weather observed at this time

METAR text: VNKT 211220Z 29009KT 250V320 9999 FEW025 21/03 Q1017 NOSIG
Conditions at: VNKT (KATHMANDU INTL A, NP) observed 1220 UTC 21 March 2019
Temperature: 21.0°C (70°F)
Dewpoint: 3.0°C (37°F) [RH = 30%]
Pressure (altimeter): 30.03 inches Hg (1017.0 mb)
Winds: from the WNW (290 degrees) at 10 MPH (9 knots; 4.6 m/s)
Visibility: 6 or more miles (10+ km)
Ceiling: at least 12,000 feet AGL
Clouds: few clouds at 2500 feet AGL
Weather: no significant weather observed at this time

METAR text: VNKT 211150Z 30007KT 9999 FEW025 22/03 Q1017 NOSIG
Conditions at: VNKT (KATHMANDU INTL A, NP) observed 1150 UTC 21 March 2019
Temperature: 22.0°C (72°F)
Dewpoint: 3.0°C (37°F) [RH = 29%]
Pressure (altimeter): 30.03 inches Hg (1017.0 mb)
Winds: from the WNW (300 degrees) at 8 MPH (7 knots; 3.6 m/s)
Visibility: 6 or more miles (10+ km)
Ceiling: at least 12,000 feet AGL
Clouds: few clouds at 2500 feet AGL
Weather: no significant weather observed at this time

METAR text: VNKT 211120Z 30008KT 270V360 9999 FEW025 23/03 Q1016 NOSIG
Conditions at: VNKT (KATHMANDU INTL A, NP) observed 1120 UTC 21 March 2019
Temperature: 23.0°C (73°F)
Dewpoint: 3.0°C (37°F) [RH = 27%]
Pressure (altimeter): 30.00 inches Hg (1016.0 mb)
Winds: from the WNW (300 degrees) at 9 MPH (8 knots; 4.1 m/s)
Visibility: 6 or more miles (10+ km)
Ceiling: at least 12,000 feet AGL
Clouds: few clouds at 2500 feet AGL
Weather: no significant weather observed at this time

METAR text: VNKT 211050Z 31010KT 270V350 9999 FEW025 23/03 Q1016 NOSIG
Conditions at: VNKT (KATHMANDU INTL A, NP) observed 1050 UTC 21 March 2019
Temperature: 23.0°C (73°F)
Dewpoint: 3.0°C (37°F) [RH = 27%]
Pressure (altimeter): 30.00 inches Hg (1016.0 mb)
Winds: from the NW (310 degrees) at 12 MPH (10 knots; 5.1 m/s)
Visibility: 6 or more miles (10+ km)
Ceiling: at least 12,000 feet AGL
Clouds: few clouds at 2500 feet AGL
Weather: no significant weather observed at this time

METAR text: VNKT 211020Z 30010KT 270V340 9999 FEW025 SCT250 24/03 Q1016 NOSIG
Conditions at: VNKT (KATHMANDU INTL A, NP) observed 1020 UTC 21 March 2019
Temperature: 24.0°C (75°F)
Dewpoint: 3.0°C (37°F) [RH = 25%]
Pressure (altimeter): 30.00 inches Hg (1016.0 mb)
Winds: from the WNW (300 degrees) at 12 MPH (10 knots; 5.1 m/s)
Visibility: 6 or more miles (10+ km)
Ceiling: at least 12,000 feet AGL
Clouds: few clouds at 2500 feet AGL
scattered clouds at 25000 feet AGL
Weather: no significant weather observed at this time

METAR text: VNKT 210950Z 31012KT 270V330 9999 FEW025 24/03 Q1016 NOSIG
Conditions at: VNKT (KATHMANDU INTL A, NP) observed 0950 UTC 21 March 2019
Temperature: 24.0°C (75°F)
Dewpoint: 3.0°C (37°F) [RH = 25%]
Pressure (altimeter): 30.00 inches Hg (1016.0 mb)
Winds: from the NW (310 degrees) at 14 MPH (12 knots; 6.2 m/s)
Visibility: 6 or more miles (10+ km)
Ceiling: at least 12,000 feet AGL
Clouds: few clouds at 2500 feet AGL
Weather: no significant weather observed at this time

METAR text: VNKT 210920Z 31011KT 9999 FEW025 SCT030 24/04 Q1017 NOSIG
Conditions at: VNKT (KATHMANDU INTL A, NP) observed 0920 UTC 21 March 2019
Temperature: 24.0°C (75°F)
Dewpoint: 4.0°C (39°F) [RH = 27%]
Pressure (altimeter): 30.03 inches Hg (1017.0 mb)
Winds: from the NW (310 degrees) at 13 MPH (11 knots; 5.7 m/s)
Visibility: 6 or more miles (10+ km)
Ceiling: at least 12,000 feet AGL
Clouds: few clouds at 2500 feet AGL
scattered clouds at 3000 feet AGL
Weather: no significant weather observed at this time

METAR text: VNKT 210850Z 31011KT 9999 FEW025 SCT030 24/04 Q1017 NOSIG
Conditions at: VNKT (KATHMANDU INTL A, NP) observed 0850 UTC 21 March 2019
Temperature: 24.0°C (75°F)
Dewpoint: 4.0°C (39°F) [RH = 27%]
Pressure (altimeter): 30.03 inches Hg (1017.0 mb)
Winds: from the NW (310 degrees) at 13 MPH (11 knots; 5.7 m/s)
Visibility: 6 or more miles (10+ km)
Ceiling: at least 12,000 feet AGL
Clouds: few clouds at 2500 feet AGL
scattered clouds at 3000 feet AGL
Weather: no significant weather observed at this time

METAR text: VNKT 210820Z 32013KT 9999 FEW025 SCT100 24/03 Q1017 NOSIG
Conditions at: VNKT (KATHMANDU INTL A, NP) observed 0820 UTC 21 March 2019
Temperature: 24.0°C (75°F)
Dewpoint: 3.0°C (37°F) [RH = 25%]
Pressure (altimeter): 30.03 inches Hg (1017.0 mb)
Winds: from the NW (320 degrees) at 15 MPH (13 knots; 6.7 m/s)
Visibility: 6 or more miles (10+ km)
Ceiling: at least 12,000 feet AGL
Clouds: few clouds at 2500 feet AGL
scattered clouds at 10000 feet AGL
Weather: no significant weather observed at this time

METAR text: VNKT 210750Z 31011KT 260V350 9999 FEW025 SCT100 24/04 Q1018 NOSIG
Conditions at: VNKT (KATHMANDU INTL A, NP) observed 0750 UTC 21 March 2019
Temperature: 24.0°C (75°F)
Dewpoint: 4.0°C (39°F) [RH = 27%]
Pressure (altimeter): 30.06 inches Hg (1018.0 mb)
Winds: from the NW (310 degrees) at 13 MPH (11 knots; 5.7 m/s)
Visibility: 6 or more miles (10+ km)
Ceiling: at least 12,000 feet AGL
Clouds: few clouds at 2500 feet AGL
scattered clouds at 10000 feet AGL
Weather: no significant weather observed at this time

METAR text: VNKT 210720Z 31011KT 9999 FEW025 SCT100 23/05 Q1018 NOSIG
Conditions at: VNKT (KATHMANDU INTL A, NP) observed 0720 UTC 21 March 2019
Temperature: 23.0°C (73°F)
Dewpoint: 5.0°C (41°F) [RH = 31%]
Pressure (altimeter): 30.06 inches Hg (1018.0 mb)
Winds: from the NW (310 degrees) at 13 MPH (11 knots; 5.7 m/s)
Visibility: 6 or more miles (10+ km)
Ceiling: at least 12,000 feet AGL
Clouds: few clouds at 2500 feet AGL
scattered clouds at 10000 feet AGL
Weather: no significant weather observed at this time

METAR text: VNKT 210650Z 31007KT 9999 FEW025 SCT100 24/05 Q1019 NOSIG
Conditions at: VNKT (KATHMANDU INTL A, NP) observed 0650 UTC 21 March 2019
Temperature: 24.0°C (75°F)
Dewpoint: 5.0°C (41°F) [RH = 29%]
Pressure (altimeter): 30.09 inches Hg (1019.0 mb)
Winds: from the NW (310 degrees) at 8 MPH (7 knots; 3.6 m/s)
Visibility: 6 or more miles (10+ km)
Ceiling: at least 12,000 feet AGL
Clouds: few clouds at 2500 feet AGL
scattered clouds at 10000 feet AGL
Weather: no significant weather observed at this time

METAR text: VNKT 210620Z 05004KT 8000 FEW025 22/07 Q1019 NOSIG
Conditions at: VNKT (KATHMANDU INTL A, NP) observed 0620 UTC 21 March 2019
Temperature: 22.0°C (72°F)
Dewpoint: 7.0°C (45°F) [RH = 38%]
Pressure (altimeter): 30.09 inches Hg (1019.0 mb)
Winds: from the NE (50 degrees) at 5 MPH (4 knots; 2.1 m/s)
Visibility: 5 miles ( 8 km)
Ceiling: at least 12,000 feet AGL
Clouds: few clouds at 2500 feet AGL
Weather: no significant weather observed at this time

METAR text: VNKT 210550Z 09005KT 8000 FEW020 21/08 Q1020 NOSIG
Conditions at: VNKT (KATHMANDU INTL A, NP) observed 0550 UTC 21 March 2019
Temperature: 21.0°C (70°F)
Dewpoint: 8.0°C (46°F) [RH = 43%]
Pressure (altimeter): 30.12 inches Hg (1020.0 mb)
Winds: from the E (90 degrees) at 6 MPH (5 knots; 2.6 m/s)
Visibility: 5 miles ( 8 km)
Ceiling: at least 12,000 feet AGL
Clouds: few clouds at 2000 feet AGL
Weather: no significant weather observed at this time

METAR text: VNKT 210520Z 05003KT 8000 FEW020 21/08 Q1021 NOSIG
Conditions at: VNKT (KATHMANDU INTL A, NP) observed 0520 UTC 21 March 2019
Temperature: 21.0°C (70°F)
Dewpoint: 8.0°C (46°F) [RH = 43%]
Pressure (altimeter): 30.15 inches Hg (1021.0 mb)
Winds: from the NE (50 degrees) at 3 MPH (3 knots; 1.5 m/s)
Visibility: 5 miles ( 8 km)
Ceiling: at least 12,000 feet AGL
Clouds: few clouds at 2000 feet AGL
Weather: no significant weather observed at this time

METAR text: VNKT 210450Z 14003KT 8000 FEW020 20/09 Q1021 NOSIG
Conditions at: VNKT (KATHMANDU INTL A, NP) observed 0450 UTC 21 March 2019
Temperature: 20.0°C (68°F)
Dewpoint: 9.0°C (48°F) [RH = 49%]
Pressure (altimeter): 30.15 inches Hg (1021.0 mb)
Winds: from the SE (140 degrees) at 3 MPH (3 knots; 1.5 m/s)
Visibility: 5 miles ( 8 km)
Ceiling: at least 12,000 feet AGL
Clouds: few clouds at 2000 feet AGL
Weather: no significant weather observed at this time

METAR text: VNKT 210420Z 14003KT 8000 FEW020 18/08 Q1021 NOSIG
Conditions at: VNKT (KATHMANDU INTL A, NP) observed 0420 UTC 21 March 2019
Temperature: 18.0°C (64°F)
Dewpoint: 8.0°C (46°F) [RH = 52%]
Pressure (altimeter): 30.15 inches Hg (1021.0 mb)
Winds: from the SE (140 degrees) at 3 MPH (3 knots; 1.5 m/s)
Visibility: 5 miles ( 8 km)
Ceiling: at least 12,000 feet AGL
Clouds: few clouds at 2000 feet AGL
Weather: no significant weather observed at this time

METAR text: VNKT 210350Z 15003KT 6000 FEW020 17/09 Q1021 NOSIG
Conditions at: VNKT (KATHMANDU INTL A, NP) observed 0350 UTC 21 March 2019
Temperature: 17.0°C (63°F)
Dewpoint: 9.0°C (48°F) [RH = 59%]
Pressure (altimeter): 30.15 inches Hg (1021.0 mb)
Winds: from the SSE (150 degrees) at 3 MPH (3 knots; 1.5 m/s)
Visibility: 4 miles ( 6 km)
Ceiling: at least 12,000 feet AGL
Clouds: few clouds at 2000 feet AGL
Weather: no significant weather observed at this time

METAR text: VNKT 210320Z 14005KT 6000 FEW020 15/09 Q1021 NOSIG
Conditions at: VNKT (KATHMANDU INTL A, NP) observed 0320 UTC 21 March 2019
Temperature: 15.0°C (59°F)
Dewpoint: 9.0°C (48°F) [RH = 67%]
Pressure (altimeter): 30.15 inches Hg (1021.0 mb)
Winds: from the SE (140 degrees) at 6 MPH (5 knots; 2.6 m/s)
Visibility: 4 miles ( 6 km)
Ceiling: at least 12,000 feet AGL
Clouds: few clouds at 2000 feet AGL
Weather: no significant weather observed at this time

METAR text: VNKT 210250Z 09004KT 5000 BR FEW015 14/10 Q1020 NOSIG
Conditions at: VNKT (KATHMANDU INTL A, NP) observed 0250 UTC 21 March 2019
Temperature: 14.0°C (57°F)
Dewpoint: 10.0°C (50°F) [RH = 77%]
Pressure (altimeter): 30.12 inches Hg (1020.0 mb)
Winds: from the E (90 degrees) at 5 MPH (4 knots; 2.1 m/s)
Visibility: 3 miles ( 5 km)
Ceiling: at least 12,000 feet AGL
Clouds: few clouds at 1500 feet AGL
Weather: BR  (mist)

METAR text: VNKT 210220Z 00000KT 500 BR FEW015 SCT100 12/09 Q1020 NOSIG
Conditions at: VNKT (KATHMANDU INTL A, NP) observed 0220 UTC 21 March 2019
Temperature: 12.0°C (54°F)
Dewpoint: 9.0°C (48°F) [RH = 82%]
Pressure (altimeter): 30.12 inches Hg (1020.0 mb)
Winds: calm
Visibility: missing
Ceiling: at least 12,000 feet AGL
Clouds: few clouds at 1500 feet AGL
scattered clouds at 10000 feet AGL
Weather: BR  (mist)

METAR text: VNKT 210150Z 00000KT 5000 BR FEW015 12/09 Q1019 NOSIG
Conditions at: VNKT (KATHMANDU INTL A, NP) observed 0150 UTC 21 March 2019
Temperature: 12.0°C (54°F)
Dewpoint: 9.0°C (48°F) [RH = 82%]
Pressure (altimeter): 30.09 inches Hg (1019.0 mb)
Winds: calm
Visibility: 3 miles ( 5 km)
Ceiling: at least 12,000 feet AGL
Clouds: few clouds at 1500 feet AGL
Weather: BR  (mist)

METAR text: VNKT 210120Z 08003KT 4000 BR FEW015 09/08 Q1019 NOSIG
Conditions at: VNKT (KATHMANDU INTL A, NP) observed 0120 UTC 21 March 2019
Temperature: 9.0°C (48°F)
Dewpoint: 8.0°C (46°F) [RH = 93%]
Pressure (altimeter): 30.09 inches Hg (1019.0 mb)
Winds: from the E (80 degrees) at 3 MPH (3 knots; 1.5 m/s)
Visibility: 2.49 miles (4.01 km)
Ceiling: at least 12,000 feet AGL
Clouds: few clouds at 1500 feet AGL
Weather: BR  (mist)

METAR text: VNKT 210050Z 17003KT 3500 BR FEW015 09/08 Q1018 NOSIG
Conditions at: VNKT (KATHMANDU INTL A, NP) observed 0050 UTC 21 March 2019
Temperature: 9.0°C (48°F)
Dewpoint: 8.0°C (46°F) [RH = 93%]
Pressure (altimeter): 30.06 inches Hg (1018.0 mb)
Winds: from the S (170 degrees) at 3 MPH (3 knots; 1.5 m/s)
Visibility: 2.17 miles (3.49 km)
Ceiling: at least 12,000 feet AGL
Clouds: few clouds at 1500 feet AGL
Weather: BR  (mist)

Forecast for: VNKT (KATHMANDU INTL A, NP)
Text: TAF VNKT 221100Z 2212/2312 24007KT 8000 FEW025
Forecast period: 1200 to 1400 UTC 22 March 2019
Forecast type: FROM: standard forecast or significant change
Winds: from the WSW (240 degrees) at 8 MPH (7 knots; 3.6 m/s)
Visibility: 5 miles (8 km)
Ceiling: at least 12,000 feet AGL
Clouds: few clouds at 2500 feet AGL
Weather: no significant weather forecast for this period
Text: BECMG 2214/2215 15005KT 6000 FEW015 SCT100
Forecast period: 1400 UTC 22 March 2019 to 0000 UTC 23 March 2019
Forecast type: BECOMING: Conditions expected to become as follows by 1500 UTC 22 March 2019
Winds: from the SSE (150 degrees) at 6 MPH (5 knots; 2.6 m/s)
Visibility: 4 miles (6 km)
Ceiling: at least 12,000 feet AGL
Clouds: few clouds at 1500 feet AGL
scattered clouds at 10000 feet AGL
Weather: no significant weather forecast for this period
Text: BECMG 2300/2302 VRB02KT 4000 BR FEW015
Forecast period: 0000 to 0400 UTC 23 March 2019
Forecast type: BECOMING: Conditions expected to become as follows by 0200 UTC 23 March 2019
Winds: variable direction winds at 2 MPH (2 knots; 1.0 m/s)
Visibility: 2.49 miles (4.01 km)
Ceiling: at least 12,000 feet AGL
Clouds: few clouds at 1500 feet AGL
Weather: BR  (mist)
Text: BECMG 2304/2305 12003KT 6000 FEW020
Forecast period: 0400 to 0700 UTC 23 March 2019
Forecast type: BECOMING: Conditions expected to become as follows by 0500 UTC 23 March 2019
Winds: from the ESE (120 degrees) at 3 MPH (3 knots; 1.5 m/s)
Visibility: 4 miles (6 km)
Ceiling: at least 12,000 feet AGL
Clouds: few clouds at 2000 feet AGL
Weather: BR  (mist)
Text: BECMG 2307/2308 25008KT 9000 FEW025 SCT030
Forecast period: 0700 to 1200 UTC 23 March 2019
Forecast type: BECOMING: Conditions expected to become as follows by 0800 UTC 23 March 2019
Winds: from the WSW (250 degrees) at 9 MPH (8 knots; 4.1 m/s)
Visibility: 6 miles (9 km)
Ceiling: at least 12,000 feet AGL
Clouds: few clouds at 2500 feet AGL
scattered clouds at 3000 feet AGL
Weather: BR  (mist)
Text: PROB40 2308/2312 VRB10KT 4000 -TSRA FEW025CB
Forecast period: 0800 to 1200 UTC 23 March 2019
Forecast type: PROBABLE: 40 percent likelihood of the following during this time
Winds: variable direction winds at 12 MPH (10 knots; 5.1 m/s)
Visibility: 2.49 miles (4.01 km)
Ceiling: at least 12,000 feet AGL
Clouds: few clouds at 2500 feet AGL
Weather: -TSRA  (light rain associated with thunderstorm(s))